sensor_id;sensor_type;location;lat;lon;timestamp;pressure;altitude;pressure_sealevel;temperature;humidity
72570;BME280;60594;50.204;8.844;2023-09-12T00:00:56;99591.66;;;19.81;91.49
72570;BME280;60594;50.204;8.844;2023-09-12T00:03:34;99584.56;;;19.80;91.06
72570;BME280;60594;50.204;8.844;2023-09-12T00:06:02;99586.66;;;19.78;91.24
72570;BME280;60594;50.204;8.844;2023-09-12T00:08:28;99592.00;;;19.71;91.87
72570;BME280;60594;50.204;8.844;2023-09-12T00:11:05;99579.50;;;19.70;91.54
72570;BME280;60594;50.204;8.844;2023-09-12T00:13:32;99573.69;;;19.67;91.87
72570;BME280;60594;50.204;8.844;2023-09-12T00:15:59;99585.25;;;19.61;91.88
72570;BME280;60594;50.204;8.844;2023-09-12T00:18:27;99577.16;;;19.61;91.91
72570;BME280;60594;50.204;8.844;2023-09-12T00:20:54;99587.53;;;19.57;93.19
72570;BME280;60594;50.204;8.844;2023-09-12T00:23:21;99578.34;;;19.52;92.88
72570;BME280;60594;50.204;8.844;2023-09-12T00:25:50;99582.03;;;19.51;93.08
72570;BME280;60594;50.204;8.844;2023-09-12T00:28:21;99578.72;;;19.49;93.51
72570;BME280;60594;50.204;8.844;2023-09-12T00:30:48;99576.78;;;19.43;94.15
72570;BME280;60594;50.204;8.844;2023-09-12T00:33:15;99575.88;;;19.36;94.16
72570;BME280;60594;50.204;8.844;2023-09-12T00:35:43;99568.09;;;19.26;93.93
72570;BME280;60594;50.204;8.844;2023-09-12T00:38:09;99562.91;;;19.25;94.62
72570;BME280;60594;50.204;8.844;2023-09-12T00:40:36;99566.59;;;19.24;94.95
72570;BME280;60594;50.204;8.844;2023-09-12T00:43:04;99562.91;;;19.25;95.20
72570;BME280;60594;50.204;8.844;2023-09-12T00:45:31;99558.50;;;19.24;95.00
72570;BME280;60594;50.204;8.844;2023-09-12T00:47:58;99556.66;;;19.24;94.62
72570;BME280;60594;50.204;8.844;2023-09-12T00:50:26;99551.28;;;19.24;95.35
72570;BME280;60594;50.204;8.844;2023-09-12T00:52:54;99553.78;;;19.26;94.83
72570;BME280;60594;50.204;8.844;2023-09-12T00:55:21;99551.44;;;19.23;95.08
72570;BME280;60594;50.204;8.844;2023-09-12T00:57:48;99546.41;;;19.20;94.91
72570;BME280;60594;50.204;8.844;2023-09-12T01:00:15;99542.47;;;19.22;94.45
72570;BME280;60594;50.204;8.844;2023-09-12T01:02:43;99546.59;;;19.18;95.01
72570;BME280;60594;50.204;8.844;2023-09-12T01:05:13;99541.00;;;19.20;94.89
72570;BME280;60594;50.204;8.844;2023-09-12T01:07:43;99537.25;;;19.21;94.41
72570;BME280;60594;50.204;8.844;2023-09-12T01:10:10;99537.91;;;19.23;94.56
72570;BME280;60594;50.204;8.844;2023-09-12T01:12:36;99534.13;;;19.17;94.59
72570;BME280;60594;50.204;8.844;2023-09-12T01:15:04;99532.38;;;19.10;95.03
72570;BME280;60594;50.204;8.844;2023-09-12T01:17:34;99533.41;;;19.09;95.84
72570;BME280;60594;50.204;8.844;2023-09-12T01:20:02;99534.03;;;19.11;95.91
72570;BME280;60594;50.204;8.844;2023-09-12T01:23:05;99537.63;;;19.18;95.55
72570;BME280;60594;50.204;8.844;2023-09-12T01:26:02;99548.38;;;19.26;94.92
72570;BME280;60594;50.204;8.844;2023-09-12T01:28:34;99545.13;;;19.16;95.39
72570;BME280;60594;50.204;8.844;2023-09-12T01:31:01;99545.50;;;19.13;95.70
72570;BME280;60594;50.204;8.844;2023-09-12T01:33:29;99541.84;;;18.99;95.65
72570;BME280;60594;50.204;8.844;2023-09-12T01:35:55;99542.59;;;18.93;95.92
72570;BME280;60594;50.204;8.844;2023-09-12T01:38:22;99540.75;;;18.94;96.16
72570;BME280;60594;50.204;8.844;2023-09-12T01:40:51;99552.41;;;18.94;96.13
72570;BME280;60594;50.204;8.844;2023-09-12T01:43:22;99553.03;;;18.96;96.14
72570;BME280;60594;50.204;8.844;2023-09-12T01:45:52;99547.63;;;18.96;96.93
72570;BME280;60594;50.204;8.844;2023-09-12T01:48:23;99548.59;;;18.89;97.74
72570;BME280;60594;50.204;8.844;2023-09-12T01:50:50;99537.44;;;18.77;98.33
72570;BME280;60594;50.204;8.844;2023-09-12T01:53:17;99530.59;;;18.60;99.31
72570;BME280;60594;50.204;8.844;2023-09-12T01:55:45;99529.50;;;18.55;100.00
72570;BME280;60594;50.204;8.844;2023-09-12T01:58:12;99526.06;;;18.61;100.00
72570;BME280;60594;50.204;8.844;2023-09-12T02:00:41;99529.50;;;18.55;100.00
72570;BME280;60594;50.204;8.844;2023-09-12T02:03:07;99526.78;;;18.69;99.72
72570;BME280;60594;50.204;8.844;2023-09-12T02:05:34;99531.19;;;18.77;99.20
72570;BME280;60594;50.204;8.844;2023-09-12T02:08:01;99527.88;;;18.75;98.94
72570;BME280;60594;50.204;8.844;2023-09-12T02:10:29;99527.41;;;18.71;99.14
72570;BME280;60594;50.204;8.844;2023-09-12T02:12:55;99526.41;;;18.72;97.86
72570;BME280;60594;50.204;8.844;2023-09-12T02:15:22;99526.59;;;18.71;98.27
72570;BME280;60594;50.204;8.844;2023-09-12T02:17:48;99535.25;;;18.66;98.79
72570;BME280;60594;50.204;8.844;2023-09-12T02:20:17;99532.53;;;18.66;98.69
72570;BME280;60594;50.204;8.844;2023-09-12T02:22:44;99526.34;;;18.51;98.82
72570;BME280;60594;50.204;8.844;2023-09-12T02:25:11;99520.88;;;18.45;99.14
72570;BME280;60594;50.204;8.844;2023-09-12T02:27:38;99526.34;;;18.51;98.25
72570;BME280;60594;50.204;8.844;2023-09-12T02:30:06;99541.78;;;18.57;97.83
72570;BME280;60594;50.204;8.844;2023-09-12T02:32:33;99556.22;;;18.50;96.63
72570;BME280;60594;50.204;8.844;2023-09-12T02:35:00;99556.03;;;18.37;96.84
72570;BME280;60594;50.204;8.844;2023-09-12T02:37:26;99555.19;;;18.22;97.91
72570;BME280;60594;50.204;8.844;2023-09-12T02:39:53;99553.44;;;18.00;98.79
72570;BME280;60594;50.204;8.844;2023-09-12T02:42:20;99546.53;;;17.68;100.00
72570;BME280;60594;50.204;8.844;2023-09-12T02:44:47;99533.53;;;17.72;100.00
72570;BME280;60594;50.204;8.844;2023-09-12T02:47:14;99540.59;;;17.73;100.00
72570;BME280;60594;50.204;8.844;2023-09-12T02:49:40;99544.19;;;17.65;100.00
72570;BME280;60594;50.204;8.844;2023-09-12T02:52:07;99542.44;;;17.58;100.00
72570;BME280;60594;50.204;8.844;2023-09-12T02:54:34;99533.41;;;17.65;100.00
72570;BME280;60594;50.204;8.844;2023-09-12T02:57:00;99538.00;;;17.65;100.00
72570;BME280;60594;50.204;8.844;2023-09-12T02:59:27;99544.31;;;17.72;100.00
72570;BME280;60594;50.204;8.844;2023-09-12T03:01:53;99542.38;;;17.80;100.00
72570;BME280;60594;50.204;8.844;2023-09-12T03:04:20;99549.72;;;17.86;100.00
72570;BME280;60594;50.204;8.844;2023-09-12T03:06:46;99543.09;;;17.89;100.00
72570;BME280;60594;50.204;8.844;2023-09-12T03:09:14;99536.91;;;17.88;100.00
72570;BME280;60594;50.204;8.844;2023-09-12T03:11:42;99535.59;;;17.84;100.00
72570;BME280;60594;50.204;8.844;2023-09-12T03:14:09;99525.44;;;17.72;100.00
72570;BME280;60594;50.204;8.844;2023-09-12T03:16:35;99528.34;;;17.70;100.00
72570;BME280;60594;50.204;8.844;2023-09-12T03:19:03;99528.78;;;17.74;100.00
72570;BME280;60594;50.204;8.844;2023-09-12T03:21:30;99520.25;;;17.70;100.00
72570;BME280;60594;50.204;8.844;2023-09-12T03:23:57;99521.06;;;17.71;100.00
72570;BME280;60594;50.204;8.844;2023-09-12T03:26:24;99511.31;;;17.70;100.00
72570;BME280;60594;50.204;8.844;2023-09-12T03:28:50;99522.00;;;17.78;100.00
72570;BME280;60594;50.204;8.844;2023-09-12T03:31:17;99517.72;;;17.83;100.00
72570;BME280;60594;50.204;8.844;2023-09-12T03:33:44;99520.22;;;17.85;100.00
72570;BME280;60594;50.204;8.844;2023-09-12T03:36:16;99520.59;;;17.82;100.00
72570;BME280;60594;50.204;8.844;2023-09-12T03:38:44;99518.47;;;17.77;100.00
72570;BME280;60594;50.204;8.844;2023-09-12T03:41:11;99519.56;;;17.54;100.00
72570;BME280;60594;50.204;8.844;2023-09-12T03:43:38;99518.81;;;17.60;100.00
72570;BME280;60594;50.204;8.844;2023-09-12T03:46:05;99521.56;;;17.37;100.00
72570;BME280;60594;50.204;8.844;2023-09-12T03:48:33;99526.50;;;17.11;100.00
72570;BME280;60594;50.204;8.844;2023-09-12T03:51:00;99522.91;;;16.96;100.00
72570;BME280;60594;50.204;8.844;2023-09-12T03:53:27;99515.41;;;17.06;100.00
72570;BME280;60594;50.204;8.844;2023-09-12T03:55:54;99515.19;;;17.16;100.00
72570;BME280;60594;50.204;8.844;2023-09-12T03:58:21;99508.03;;;17.23;100.00
72570;BME280;60594;50.204;8.844;2023-09-12T04:00:48;99504.81;;;17.27;100.00
72570;BME280;60594;50.204;8.844;2023-09-12T04:03:14;99503.91;;;17.35;100.00
72570;BME280;60594;50.204;8.844;2023-09-12T04:05:42;99510.91;;;17.44;100.00
72570;BME280;60594;50.204;8.844;2023-09-12T04:08:09;99514.19;;;17.54;100.00
72570;BME280;60594;50.204;8.844;2023-09-12T04:10:35;99506.03;;;17.39;100.00
72570;BME280;60594;50.204;8.844;2023-09-12T04:13:02;99494.09;;;17.42;100.00
72570;BME280;60594;50.204;8.844;2023-09-12T04:15:28;99501.78;;;17.45;100.00
72570;BME280;60594;50.204;8.844;2023-09-12T04:17:55;99495.69;;;17.51;100.00
72570;BME280;60594;50.204;8.844;2023-09-12T04:20:22;99499.22;;;17.51;100.00
72570;BME280;60594;50.204;8.844;2023-09-12T04:22:49;99504.91;;;17.34;100.00
72570;BME280;60594;50.204;8.844;2023-09-12T04:25:15;99512.78;;;17.21;100.00
72570;BME280;60594;50.204;8.844;2023-09-12T04:27:42;99507.22;;;17.22;100.00
72570;BME280;60594;50.204;8.844;2023-09-12T04:30:08;99497.66;;;17.34;100.00
72570;BME280;60594;50.204;8.844;2023-09-12T04:32:35;99508.03;;;17.45;100.00
72570;BME280;60594;50.204;8.844;2023-09-12T04:35:02;99512.69;;;17.51;100.00
72570;BME280;60594;50.204;8.844;2023-09-12T04:37:29;99515.75;;;17.48;100.00
72570;BME280;60594;50.204;8.844;2023-09-12T04:39:56;99511.22;;;17.49;100.00
72570;BME280;60594;50.204;8.844;2023-09-12T04:42:23;99509.81;;;17.53;100.00
72570;BME280;60594;50.204;8.844;2023-09-12T04:44:49;99513.63;;;17.58;100.00
72570;BME280;60594;50.204;8.844;2023-09-12T04:47:16;99515.50;;;17.58;100.00
72570;BME280;60594;50.204;8.844;2023-09-12T04:49:43;99524.59;;;17.57;100.00
72570;BME280;60594;50.204;8.844;2023-09-12T04:52:10;99517.06;;;17.52;100.00
72570;BME280;60594;50.204;8.844;2023-09-12T04:54:37;99523.28;;;17.30;100.00
72570;BME280;60594;50.204;8.844;2023-09-12T04:57:05;99525.72;;;17.40;100.00
72570;BME280;60594;50.204;8.844;2023-09-12T04:59:31;99530.16;;;17.55;100.00
72570;BME280;60594;50.204;8.844;2023-09-12T05:01:58;99537.13;;;17.50;100.00
72570;BME280;60594;50.204;8.844;2023-09-12T05:04:25;99540.84;;;17.26;99.75
72570;BME280;60594;50.204;8.844;2023-09-12T05:06:51;99545.63;;;17.16;100.00
72570;BME280;60594;50.204;8.844;2023-09-12T05:09:18;99538.50;;;17.01;100.00
72570;BME280;60594;50.204;8.844;2023-09-12T05:11:45;99529.69;;;16.92;100.00
72570;BME280;60594;50.204;8.844;2023-09-12T05:14:13;99536.28;;;16.81;100.00
72570;BME280;60594;50.204;8.844;2023-09-12T05:16:39;99549.00;;;16.65;100.00
72570;BME280;60594;50.204;8.844;2023-09-12T05:19:06;99541.69;;;16.81;100.00
72570;BME280;60594;50.204;8.844;2023-09-12T05:21:33;99524.94;;;16.71;100.00
72570;BME280;60594;50.204;8.844;2023-09-12T05:23:59;99510.47;;;16.72;100.00
72570;BME280;60594;50.204;8.844;2023-09-12T05:26:26;99531.69;;;16.90;100.00
72570;BME280;60594;50.204;8.844;2023-09-12T05:28:53;99547.88;;;17.13;100.00
72570;BME280;60594;50.204;8.844;2023-09-12T05:31:20;99552.81;;;17.24;100.00
72570;BME280;60594;50.204;8.844;2023-09-12T05:33:46;99536.84;;;17.22;100.00
72570;BME280;60594;50.204;8.844;2023-09-12T05:36:13;99522.78;;;17.12;100.00
72570;BME280;60594;50.204;8.844;2023-09-12T05:38:40;99530.84;;;17.12;100.00
72570;BME280;60594;50.204;8.844;2023-09-12T05:41:06;99539.13;;;17.11;100.00
72570;BME280;60594;50.204;8.844;2023-09-12T05:43:33;99534.47;;;17.05;100.00
72570;BME280;60594;50.204;8.844;2023-09-12T05:45:59;99527.16;;;16.91;100.00
72570;BME280;60594;50.204;8.844;2023-09-12T05:48:26;99519.31;;;17.04;100.00
72570;BME280;60594;50.204;8.844;2023-09-12T05:50:53;99535.78;;;17.09;100.00
72570;BME280;60594;50.204;8.844;2023-09-12T05:53:19;99527.72;;;17.23;100.00
72570;BME280;60594;50.204;8.844;2023-09-12T05:55:46;99523.00;;;17.48;100.00
72570;BME280;60594;50.204;8.844;2023-09-12T05:58:12;99531.84;;;17.71;100.00
72570;BME280;60594;50.204;8.844;2023-09-12T06:00:39;99526.44;;;17.56;100.00
72570;BME280;60594;50.204;8.844;2023-09-12T06:03:06;99517.50;;;17.56;100.00
72570;BME280;60594;50.204;8.844;2023-09-12T06:05:33;99512.88;;;17.64;100.00
72570;BME280;60594;50.204;8.844;2023-09-12T06:08:00;99519.88;;;17.88;100.00
72570;BME280;60594;50.204;8.844;2023-09-12T06:10:27;99525.66;;;17.99;100.00
72570;BME280;60594;50.204;8.844;2023-09-12T06:12:53;99529.81;;;18.16;100.00
72570;BME280;60594;50.204;8.844;2023-09-12T06:15:20;99516.03;;;18.26;100.00
72570;BME280;60594;50.204;8.844;2023-09-12T06:17:47;99536.38;;;18.57;100.00
72570;BME280;60594;50.204;8.844;2023-09-12T06:20:14;99541.28;;;18.68;99.79
72570;BME280;60594;50.204;8.844;2023-09-12T06:22:40;99547.78;;;18.74;100.00
72570;BME280;60594;50.204;8.844;2023-09-12T06:25:07;99548.94;;;18.65;100.00
72570;BME280;60594;50.204;8.844;2023-09-12T06:27:34;99552.97;;;18.54;100.00
72570;BME280;60594;50.204;8.844;2023-09-12T06:30:01;99556.38;;;18.63;100.00
72570;BME280;60594;50.204;8.844;2023-09-12T06:32:28;99546.53;;;18.41;100.00
72570;BME280;60594;50.204;8.844;2023-09-12T06:34:56;99544.88;;;18.40;100.00
72570;BME280;60594;50.204;8.844;2023-09-12T06:37:22;99534.81;;;18.48;100.00
72570;BME280;60594;50.204;8.844;2023-09-12T06:39:50;99533.78;;;18.64;100.00
72570;BME280;60594;50.204;8.844;2023-09-12T06:42:17;99542.00;;;18.77;100.00
72570;BME280;60594;50.204;8.844;2023-09-12T06:44:43;99545.28;;;18.72;100.00
72570;BME280;60594;50.204;8.844;2023-09-12T06:47:10;99544.22;;;18.52;100.00
72570;BME280;60594;50.204;8.844;2023-09-12T06:49:37;99541.03;;;18.34;100.00
72570;BME280;60594;50.204;8.844;2023-09-12T06:52:04;99529.88;;;18.52;100.00
72570;BME280;60594;50.204;8.844;2023-09-12T06:54:32;99541.56;;;18.73;100.00
72570;BME280;60594;50.204;8.844;2023-09-12T06:56:59;99544.47;;;18.93;100.00
72570;BME280;60594;50.204;8.844;2023-09-12T06:59:26;99538.38;;;18.84;100.00
72570;BME280;60594;50.204;8.844;2023-09-12T07:01:54;99534.41;;;18.66;100.00
72570;BME280;60594;50.204;8.844;2023-09-12T07:04:21;99539.28;;;18.56;100.00
72570;BME280;60594;50.204;8.844;2023-09-12T07:06:48;99544.31;;;18.80;100.00
72570;BME280;60594;50.204;8.844;2023-09-12T07:09:15;99548.72;;;19.02;100.00
72570;BME280;60594;50.204;8.844;2023-09-12T07:11:42;99550.47;;;19.09;100.00
72570;BME280;60594;50.204;8.844;2023-09-12T07:14:09;99546.84;;;18.81;100.00
72570;BME280;60594;50.204;8.844;2023-09-12T07:16:36;99559.34;;;18.68;100.00
72570;BME280;60594;50.204;8.844;2023-09-12T07:19:03;99556.91;;;18.73;100.00
72570;BME280;60594;50.204;8.844;2023-09-12T07:21:31;99562.19;;;18.81;100.00
72570;BME280;60594;50.204;8.844;2023-09-12T07:23:59;99561.13;;;18.96;100.00
72570;BME280;60594;50.204;8.844;2023-09-12T07:26:25;99560.75;;;18.99;100.00
72570;BME280;60594;50.204;8.844;2023-09-12T07:28:52;99560.53;;;18.80;100.00
72570;BME280;60594;50.204;8.844;2023-09-12T07:31:20;99554.94;;;18.81;100.00
72570;BME280;60594;50.204;8.844;2023-09-12T07:33:46;99548.00;;;18.93;100.00
72570;BME280;60594;50.204;8.844;2023-09-12T07:36:13;99548.09;;;19.00;100.00
72570;BME280;60594;50.204;8.844;2023-09-12T07:38:40;99544.03;;;19.10;100.00
72570;BME280;60594;50.204;8.844;2023-09-12T07:41:09;99552.66;;;19.20;100.00
72570;BME280;60594;50.204;8.844;2023-09-12T07:43:35;99556.06;;;19.29;98.93
72570;BME280;60594;50.204;8.844;2023-09-12T07:46:02;99563.28;;;19.43;97.53
72570;BME280;60594;50.204;8.844;2023-09-12T07:48:28;99561.97;;;19.60;98.38
72570;BME280;60594;50.204;8.844;2023-09-12T07:50:55;99558.41;;;19.59;100.00
72570;BME280;60594;50.204;8.844;2023-09-12T07:53:22;99554.91;;;19.59;100.00
72570;BME280;60594;50.204;8.844;2023-09-12T07:55:48;99551.25;;;19.73;97.60
72570;BME280;60594;50.204;8.844;2023-09-12T07:58:16;99543.44;;;19.84;97.01
72570;BME280;60594;50.204;8.844;2023-09-12T08:00:47;99554.13;;;19.99;97.24
72570;BME280;60594;50.204;8.844;2023-09-12T08:03:14;99552.66;;;20.24;96.59
72570;BME280;60594;50.204;8.844;2023-09-12T08:05:42;99557.56;;;20.48;94.11
72570;BME280;60594;50.204;8.844;2023-09-12T08:08:08;99561.75;;;20.57;91.51
72570;BME280;60594;50.204;8.844;2023-09-12T08:10:35;99561.94;;;20.49;92.17
72570;BME280;60594;50.204;8.844;2023-09-12T08:13:01;99564.25;;;20.52;92.27
72570;BME280;60594;50.204;8.844;2023-09-12T08:15:28;99567.25;;;20.70;92.09
72570;BME280;60594;50.204;8.844;2023-09-12T08:17:58;99581.25;;;20.87;89.67
72570;BME280;60594;50.204;8.844;2023-09-12T08:20:24;99571.22;;;20.81;89.80
72570;BME280;60594;50.204;8.844;2023-09-12T08:22:50;99568.84;;;20.58;89.30
72570;BME280;60594;50.204;8.844;2023-09-12T08:25:17;99573.06;;;20.74;89.41
72570;BME280;60594;50.204;8.844;2023-09-12T08:27:44;99569.75;;;20.78;89.40
72570;BME280;60594;50.204;8.844;2023-09-12T08:30:12;99564.44;;;21.04;89.22
72570;BME280;60594;50.204;8.844;2023-09-12T08:32:40;99568.47;;;21.28;87.46
72570;BME280;60594;50.204;8.844;2023-09-12T08:35:10;99559.28;;;21.35;88.08
72570;BME280;60594;50.204;8.844;2023-09-12T08:37:42;99561.56;;;21.64;85.91
72570;BME280;60594;50.204;8.844;2023-09-12T08:40:09;99553.47;;;21.97;84.54
72570;BME280;60594;50.204;8.844;2023-09-12T08:42:40;99558.97;;;22.41;84.27
72570;BME280;60594;50.204;8.844;2023-09-12T08:45:15;99556.81;;;22.69;80.06
72570;BME280;60594;50.204;8.844;2023-09-12T08:47:43;99562.91;;;23.02;77.93
72570;BME280;60594;50.204;8.844;2023-09-12T08:50:11;99563.78;;;23.34;77.39
72570;BME280;60594;50.204;8.844;2023-09-12T08:52:43;99569.78;;;23.67;77.13
72570;BME280;60594;50.204;8.844;2023-09-12T08:55:10;99580.25;;;23.94;75.11
72570;BME280;60594;50.204;8.844;2023-09-12T08:57:42;99567.00;;;24.22;74.03
72570;BME280;60594;50.204;8.844;2023-09-12T09:00:10;99562.16;;;24.42;73.08
72570;BME280;60594;50.204;8.844;2023-09-12T09:02:40;99554.28;;;24.52;70.35
72570;BME280;60594;50.204;8.844;2023-09-12T09:05:08;99561.19;;;24.73;71.39
72570;BME280;60594;50.204;8.844;2023-09-12T09:07:41;99559.03;;;24.93;70.29
72570;BME280;60594;50.204;8.844;2023-09-12T09:10:13;99546.88;;;25.07;69.75
72570;BME280;60594;50.204;8.844;2023-09-12T09:12:40;99568.53;;;25.20;70.12
72570;BME280;60594;50.204;8.844;2023-09-12T09:15:33;99562.13;;;25.26;70.28
72570;BME280;60594;50.204;8.844;2023-09-12T09:18:02;99558.88;;;25.47;68.57
72570;BME280;60594;50.204;8.844;2023-09-12T09:20:32;99557.97;;;25.53;63.16
72570;BME280;60594;50.204;8.844;2023-09-12T09:23:03;99555.00;;;25.66;66.43
72570;BME280;60594;50.204;8.844;2023-09-12T09:25:33;99560.00;;;25.92;67.30
72570;BME280;60594;50.204;8.844;2023-09-12T09:28:04;99562.28;;;26.18;64.19
72570;BME280;60594;50.204;8.844;2023-09-12T09:30:42;99557.53;;;26.25;58.56
72570;BME280;60594;50.204;8.844;2023-09-12T09:33:09;99551.44;;;26.46;60.99
72570;BME280;60594;50.204;8.844;2023-09-12T09:35:36;99543.72;;;26.32;60.39
72570;BME280;60594;50.204;8.844;2023-09-12T09:38:03;99556.59;;;26.31;60.74
72570;BME280;60594;50.204;8.844;2023-09-12T09:40:35;99550.50;;;26.29;61.41
72570;BME280;60594;50.204;8.844;2023-09-12T09:43:03;99547.03;;;26.45;58.82
72570;BME280;60594;50.204;8.844;2023-09-12T09:45:30;99535.63;;;26.48;58.87
72570;BME280;60594;50.204;8.844;2023-09-12T09:48:03;99545.84;;;26.64;58.05
72570;BME280;60594;50.204;8.844;2023-09-12T09:50:30;99542.81;;;26.77;57.94
72570;BME280;60594;50.204;8.844;2023-09-12T09:52:57;99528.88;;;26.90;58.89
72570;BME280;60594;50.204;8.844;2023-09-12T09:55:24;99536.94;;;27.25;56.49
72570;BME280;60594;50.204;8.844;2023-09-12T09:57:50;99539.28;;;27.33;55.55
72570;BME280;60594;50.204;8.844;2023-09-12T10:00:21;99532.19;;;27.20;56.18
72570;BME280;60594;50.204;8.844;2023-09-12T10:02:50;99538.13;;;26.89;56.98
72570;BME280;60594;50.204;8.844;2023-09-12T10:05:18;99538.09;;;27.01;57.07
72570;BME280;60594;50.204;8.844;2023-09-12T10:07:49;99541.19;;;27.32;57.07
72570;BME280;60594;50.204;8.844;2023-09-12T10:10:18;99537.06;;;27.63;57.33
72570;BME280;60594;50.204;8.844;2023-09-12T10:12:50;99543.63;;;27.62;54.28
72570;BME280;60594;50.204;8.844;2023-09-12T10:15:19;99539.19;;;27.61;54.96
72570;BME280;60594;50.204;8.844;2023-09-12T10:18:08;99540.97;;;27.67;54.42
72570;BME280;60594;50.204;8.844;2023-09-12T10:20:49;99543.69;;;27.67;55.33
72570;BME280;60594;50.204;8.844;2023-09-12T10:23:27;99541.53;;;27.36;55.03
72570;BME280;60594;50.204;8.844;2023-09-12T10:25:58;99535.94;;;26.75;55.93
72570;BME280;60594;50.204;8.844;2023-09-12T10:28:25;99530.63;;;26.96;56.09
72570;BME280;60594;50.204;8.844;2023-09-12T10:30:53;99535.72;;;27.04;56.58
72570;BME280;60594;50.204;8.844;2023-09-12T10:33:20;99530.22;;;27.32;56.25
72570;BME280;60594;50.204;8.844;2023-09-12T10:35:48;99523.63;;;27.61;60.42
72570;BME280;60594;50.204;8.844;2023-09-12T10:38:15;99519.22;;;27.77;55.11
72570;BME280;60594;50.204;8.844;2023-09-12T10:40:43;99519.06;;;27.83;56.56
72570;BME280;60594;50.204;8.844;2023-09-12T10:43:11;99518.81;;;28.01;56.57
72570;BME280;60594;50.204;8.844;2023-09-12T10:45:39;99517.94;;;28.17;54.42
72570;BME280;60594;50.204;8.844;2023-09-12T10:48:05;99516.53;;;28.15;53.67
72570;BME280;60594;50.204;8.844;2023-09-12T10:50:32;99517.81;;;27.91;54.82
72570;BME280;60594;50.204;8.844;2023-09-12T10:53:12;99528.69;;;27.86;54.42
72570;BME280;60594;50.204;8.844;2023-09-12T10:55:39;99525.59;;;27.82;52.74
72570;BME280;60594;50.204;8.844;2023-09-12T10:58:08;99525.59;;;27.82;52.92
72570;BME280;60594;50.204;8.844;2023-09-12T11:00:37;99522.75;;;27.77;53.20
72570;BME280;60594;50.204;8.844;2023-09-12T11:03:37;99517.56;;;27.92;54.95
72570;BME280;60594;50.204;8.844;2023-09-12T11:06:04;99520.13;;;27.99;53.43
72570;BME280;60594;50.204;8.844;2023-09-12T11:08:35;99520.44;;;28.02;51.15
72570;BME280;60594;50.204;8.844;2023-09-12T11:11:19;99512.94;;;28.14;50.12
72570;BME280;60594;50.204;8.844;2023-09-12T11:14:02;99502.28;;;28.34;52.62
72570;BME280;60594;50.204;8.844;2023-09-12T11:16:29;99504.66;;;28.47;51.71
72570;BME280;60594;50.204;8.844;2023-09-12T11:21:46;99497.06;;;28.54;54.74
72570;BME280;60594;50.204;8.844;2023-09-12T11:24:14;99496.84;;;28.82;52.25
72570;BME280;60594;50.204;8.844;2023-09-12T11:26:54;99497.22;;;28.91;51.04
72570;BME280;60594;50.204;8.844;2023-09-12T11:29:20;99498.88;;;28.92;50.04
72570;BME280;60594;50.204;8.844;2023-09-12T11:31:57;99498.75;;;28.82;48.97
72570;BME280;60594;50.204;8.844;2023-09-12T11:34:26;99506.22;;;28.86;49.91
72570;BME280;60594;50.204;8.844;2023-09-12T11:36:57;99507.31;;;28.85;50.91
72570;BME280;60594;50.204;8.844;2023-09-12T11:39:29;99509.19;;;28.80;51.29
72570;BME280;60594;50.204;8.844;2023-09-12T11:41:57;99508.28;;;28.74;52.09
72570;BME280;60594;50.204;8.844;2023-09-12T11:44:24;99507.91;;;28.66;50.49
72570;BME280;60594;50.204;8.844;2023-09-12T11:46:53;99505.66;;;28.41;51.37
72570;BME280;60594;50.204;8.844;2023-09-12T11:49:20;99494.59;;;28.36;51.86
72570;BME280;60594;50.204;8.844;2023-09-12T11:54:17;99491.59;;;28.38;50.92
72570;BME280;60594;50.204;8.844;2023-09-12T11:56:44;99497.06;;;28.54;53.36
72570;BME280;60594;50.204;8.844;2023-09-12T11:59:12;99498.97;;;28.75;50.84
72570;BME280;60594;50.204;8.844;2023-09-12T12:01:39;99496.94;;;28.66;50.58
72570;BME280;60594;50.204;8.844;2023-09-12T12:04:06;99497.94;;;28.81;52.08
72570;BME280;60594;50.204;8.844;2023-09-12T12:06:33;99493.84;;;28.41;52.44
72570;BME280;60594;50.204;8.844;2023-09-12T12:09:02;99498.19;;;28.58;52.82
72570;BME280;60594;50.204;8.844;2023-09-12T12:11:30;99493.28;;;28.82;50.57
72570;BME280;60594;50.204;8.844;2023-09-12T12:13:57;99498.03;;;28.91;54.68
72570;BME280;60594;50.204;8.844;2023-09-12T12:16:27;99503.44;;;28.81;51.84
72570;BME280;60594;50.204;8.844;2023-09-12T12:18:53;99492.47;;;28.81;54.84
72570;BME280;60594;50.204;8.844;2023-09-12T12:21:22;99486.81;;;28.93;53.23
72570;BME280;60594;50.204;8.844;2023-09-12T12:24:00;99488.38;;;29.11;50.73
72570;BME280;60594;50.204;8.844;2023-09-12T12:26:27;99485.91;;;29.09;52.66
72570;BME280;60594;50.204;8.844;2023-09-12T12:28:53;99484.56;;;29.12;50.81
72570;BME280;60594;50.204;8.844;2023-09-12T12:31:21;99476.41;;;29.22;52.28
72570;BME280;60594;50.204;8.844;2023-09-12T12:33:53;99472.19;;;29.41;50.24
72570;BME280;60594;50.204;8.844;2023-09-12T12:36:20;99473.25;;;29.35;49.36
72570;BME280;60594;50.204;8.844;2023-09-12T12:38:48;99478.25;;;29.43;51.05
72570;BME280;60594;50.204;8.844;2023-09-12T12:41:26;99478.75;;;29.40;51.47
72570;BME280;60594;50.204;8.844;2023-09-12T12:43:56;99475.75;;;29.41;48.13
72570;BME280;60594;50.204;8.844;2023-09-12T12:46:25;99471.72;;;29.49;52.16
72570;BME280;60594;50.204;8.844;2023-09-12T12:48:51;99465.72;;;29.57;50.60
72570;BME280;60594;50.204;8.844;2023-09-12T12:51:24;99463.91;;;29.67;49.44
72570;BME280;60594;50.204;8.844;2023-09-12T12:53:55;99463.75;;;29.84;47.92
72570;BME280;60594;50.204;8.844;2023-09-12T12:56:26;99465.63;;;29.78;49.09
72570;BME280;60594;50.204;8.844;2023-09-12T12:58:57;99460.19;;;29.83;48.40
72570;BME280;60594;50.204;8.844;2023-09-12T13:01:25;99456.84;;;29.76;49.28
72570;BME280;60594;50.204;8.844;2023-09-12T13:03:51;99459.84;;;29.75;49.38
72570;BME280;60594;50.204;8.844;2023-09-12T13:06:19;99453.56;;;29.79;48.35